Time;durP1;ratioP1;P1;durP2;ratioP2;P2;SDS_P1;SDS_P2;PMS_P1;PMS_P2;Temp;Humidity;BMP_temperature;BMP_pressure;BME280_temperature;BME280_humidity;BME280_pressure;Samples;Min_cycle;Max_cycle;Signal;HPM_P1;HPM_P2
2023/08/20 20:12:46;;;;;;;8.95;3.20;;;;;;;;;;5108304;27;20343;-84
2023/08/20 20:15:31;;;;;;;9.90;2.85;;;;;;;;;;5109069;28;20395;-85
2023/08/20 20:18:15;;;;;;;8.00;2.78;;;;;;;;;;5108801;28;20039;-85
2023/08/20 20:21:00;;;;;;;13.48;3.40;;;;;;;;;;5108591;28;20498;-85
2023/08/20 20:23:45;;;;;;;7.15;2.67;;;;;;;;;;5081125;28;20086;-85
2023/08/20 20:26:30;;;;;;;6.63;2.30;;;;;;;;;;5100918;28;20069;-84
2023/08/20 20:29:14;;;;;;;10.25;2.13;;;;;;;;;;5109118;28;20522;-85
2023/08/20 20:31:59;;;;;;;8.98;2.63;;;;;;;;;;5107780;28;20408;-85
2023/08/20 20:34:43;;;;;;;8.50;2.28;;;;;;;;;;5108590;28;20088;-83
2023/08/20 20:37:28;;;;;;;9.52;2.83;;;;;;;;;;5107684;28;20482;-85
2023/08/20 20:40:12;;;;;;;8.05;1.85;;;;;;;;;;5080824;28;20123;-85
2023/08/20 20:42:57;;;;;;;6.80;2.28;;;;;;;;;;5094465;28;20112;-84
2023/08/20 20:45:45;;;;;;;12.35;2.75;;;;;;;;;;5107923;28;20490;-84
2023/08/20 20:48:30;;;;;;;6.60;2.00;;;;;;;;;;5108176;28;20567;-84
2023/08/20 20:51:15;;;;;;;8.48;1.90;;;;;;;;;;5108473;28;20059;-84
2023/08/20 20:53:59;;;;;;;7.45;2.05;;;;;;;;;;5106711;28;20031;-84
2023/08/20 20:56:44;;;;;;;7.30;1.88;;;;;;;;;;5107282;28;20043;-84
2023/08/20 20:59:28;;;;;;;5.60;1.80;;;;;;;;;;5081607;28;20130;-84
2023/08/20 21:02:13;;;;;;;11.45;1.92;;;;;;;;;;5107845;28;20126;-85
2023/08/20 21:04:58;;;;;;;11.80;2.35;;;;;;;;;;5107649;28;20073;-85
2023/08/20 21:07:42;;;;;;;5.20;2.05;;;;;;;;;;5106978;28;20122;-84
2023/08/20 21:10:27;;;;;;;7.60;2.40;;;;;;;;;;5106612;28;20081;-85
2023/08/20 21:13:13;;;;;;;9.05;2.72;;;;;;;;;;5107433;28;20081;-84
2023/08/20 21:15:58;;;;;;;10.93;2.58;;;;;;;;;;5106366;28;20047;-84
2023/08/20 21:21:00;;;;;;;10.45;2.78;;;;;;;;;;5044594;27;1975141;-84
2023/08/20 21:23:44;;;;;;;10.55;2.33;;;;;;;;;;5060248;28;20447;-84
2023/08/20 21:26:29;;;;;;;14.13;2.67;;;;;;;;;;5088518;28;20430;-84
2023/08/20 21:29:13;;;;;;;11.05;2.83;;;;;;;;;;5088404;28;20562;-84
2023/08/20 21:31:58;;;;;;;9.55;2.78;;;;;;;;;;5087907;28;20043;-84
2023/08/20 21:34:46;;;;;;;5.15;2.17;;;;;;;;;;5088544;28;20086;-84
2023/08/20 21:37:30;;;;;;;6.75;2.10;;;;;;;;;;5088492;28;20059;-84
2023/08/20 21:40:15;;;;;;;7.75;2.28;;;;;;;;;;5087652;28;20495;-84
2023/08/20 21:42:59;;;;;;;6.88;2.05;;;;;;;;;;5072810;28;20451;-84
2023/08/20 21:45:45;;;;;;;8.27;3.13;;;17.60;99.90;;;;;;5088193;28;20423;-84
2023/08/20 21:48:29;;;;;;;9.57;2.08;;;;;;;;;;5072817;28;20055;-84
2023/08/20 21:51:14;;;;;;;7.32;2.80;;;;;;;;;;5072495;28;20070;-84
2023/08/20 21:53:58;;;;;;;8.75;2.65;;;;;;;;;;5087693;28;20062;-84
2023/08/20 21:56:43;;;;;;;7.93;2.58;;;;;;;;;;5072997;28;20039;-84
2023/08/20 21:59:28;;;;;;;9.15;2.80;;;;;;;;;;5088184;28;20490;-84
2023/08/20 22:02:12;;;;;;;7.85;2.42;;;;;;;;;;5072059;28;20051;-84
2023/08/20 22:05:16;;;;;;;7.22;3.08;;;;;;;;;;5087775;28;20403;-83
2023/08/20 22:08:02;;;;;;;8.75;2.85;;;;;;;;;;5087341;28;20043;-84
2023/08/20 22:10:47;;;;;;;7.30;2.90;;;;;;;;;;5087799;28;20404;-84
2023/08/20 22:13:32;;;;;;;6.80;2.63;;;;;;;;;;5087913;28;20058;-85
2023/08/20 22:16:17;;;;;;;10.77;3.22;;;;;;;;;;5087002;28;20058;-85
2023/08/20 22:19:02;;;;;;;6.53;2.80;;;;;;;;;;5086871;28;20166;-84
2023/08/20 22:21:47;;;;;;;8.15;3.05;;;;;;;;;;5087599;28;20043;-84
2023/08/20 22:24:32;;;;;;;12.07;3.22;;;;;;;;;;5072314;28;20039;-84
2023/08/20 22:27:16;;;;;;;18.65;3.13;;;;;;;;;;5087242;28;20047;-84
2023/08/20 22:30:01;;;;;;;9.50;2.88;;;;;;;;;;5086895;28;20086;-84
2023/08/20 22:32:45;;;;;;;7.63;3.00;;;;;;;;;;5073694;28;20067;-84
2023/08/20 22:35:30;;;;;;;7.43;2.97;;;;;;;;;;5073898;28;20067;-85
2023/08/20 22:38:15;;;;;;;7.97;2.72;;;;;;;;;;5072643;28;20170;-85
2023/08/20 22:41:00;;;;;;;7.22;2.60;;;;;;;;;;5068803;28;20189;-82
2023/08/20 22:43:44;;;;;;;8.75;2.70;;;;;;;;;;5070074;28;20032;-84
2023/08/20 22:46:29;;;;;;;7.13;2.55;;;;;;;;;;5065692;28;20039;-85
2023/08/20 22:49:14;;;;;;;6.70;2.80;;;;;;;;;;5058043;28;20047;-84
2023/08/20 22:51:58;;;;;;;8.60;2.72;;;;;;;;;;5073533;28;20495;-84
2023/08/20 22:54:43;;;;;;;12.10;3.92;;;;;;;;;;5073599;28;20494;-84
2023/08/20 22:57:27;;;;;;;9.75;3.42;;;;;;;;;;5073270;28;20061;-84
2023/08/20 23:00:13;;;;;;;6.53;2.53;;;16.40;99.90;;;;;;5072910;28;20075;-84
2023/08/20 23:02:58;;;;;;;8.32;2.60;;;;;;;;;;5073554;28;20086;-84
2023/08/20 23:05:42;;;;;;;6.60;2.60;;;;;;;;;;5073344;28;20059;-83
2023/08/20 23:08:27;;;;;;;9.52;3.00;;;;;;;;;;5072688;28;20046;-84
2023/08/20 23:11:12;;;;;;;7.32;2.70;;;;;;;;;;5072507;28;20471;-84
2023/08/20 23:13:56;;;;;;;5.93;3.00;;;;;;;;;;5073360;28;20039;-84
2023/08/20 23:16:41;;;;;;;9.13;2.97;;;;;;;;;;5072983;28;20036;-84
2023/08/20 23:19:25;;;;;;;7.13;3.85;;;;;;;;;;5072596;28;20114;-84
2023/08/20 23:22:10;;;;;;;5.93;2.85;;;;;;;;;;5057516;28;20439;-84
2023/08/20 23:24:55;;;;;;;8.68;2.58;;;;;;;;;;5072812;28;20066;-84
2023/08/20 23:27:39;;;;;;;7.95;2.72;;;;;;;;;;5073084;28;20043;-84
2023/08/20 23:30:24;;;;;;;7.20;2.58;;;;;;;;;;5072147;28;20241;-84
2023/08/20 23:33:08;;;;;;;9.48;2.60;;;;;;;;;;5072430;28;20039;-82
2023/08/20 23:35:53;;;;;;;7.32;3.25;;;;;;;;;;5061435;28;20071;-84
2023/08/20 23:38:39;;;;;;;10.15;2.72;;;;;;;;;;5072518;28;20134;-84
2023/08/20 23:41:24;;;;;;;5.78;2.30;;;;;;;;;;5072244;28;20560;-84
2023/08/20 23:44:09;;;;;;;7.25;2.20;;;;;;;;;;5071447;28;20043;-82
2023/08/20 23:46:54;;;;;;;9.68;3.03;;;;;;;;;;5072366;28;20047;-84
2023/08/20 23:49:38;;;;;;;6.63;2.70;;;;;;;;;;5072750;28;20044;-84
2023/08/20 23:52:23;;;;;;;9.13;2.38;;;;;;;;;;5071747;28;20450;-84
2023/08/20 23:55:07;;;;;;;6.18;2.80;;;;;;;;;;5072491;28;20039;-84
2023/08/20 23:57:52;;;;;;;10.23;2.92;;;;;;;;;;5072460;28;20503;-84
